Weather History for Rolla, ND

Change the Weather History Date:

Wednesday, November 13, 2013

  Actual Average (KRUG) Record (KRUG)
Temperature  
Mean Temperature 40 °F -  
Max Temperature 51 °F 34 °F 61 °F (1953)
Min Temperature 30 °F 18 °F -12 °F (1986)
Degree Days  
Heating Degree Days 24    
Moisture  
Dew Point 29 °F    
Average Humidity 65    
Maximum Humidity 87    
Minimum Humidity 37    
Precipitation  
Precipitation 0.00 in - - ()
Sea Level Pressure  
Sea Level Pressure 29.81 in    
Wind  
Wind Speed 19 mph (West)    
Max Wind Speed 30 mph    
Max Gust Speed 37 mph    
Visibility 10 miles    
Events Rain    
Averages and records for this station are not official NWS values.
T = Trace of Precipitation, MM = Missing Value Source: NWS Daily Summary

Daily Weather History Graph

Daily Weather History Graph

Search for Another Location

Airport:

Trip Planner

Search our weather history database for the weather conditions in past years. The results will help you decide how hot, cold, wet, or windy it might be!

Date:

Astronomy

Nov. 13, 2013 Rise Set
Actual Time 7:44 AM CST 5:00 PM CST
Civil Twilight 7:10 AM CST 5:34 PM CST
Nautical Twilight 6:32 AM CST 6:12 PM CST
Astronomical Twilight 5:55 AM CST 6:49 PM CST
Moon 3:05 PM CST (11/13) 3:20 AM CST (11/13)
Length of Visible Light 10h 23m
Length of Day
9h 15m
Waxing Gibbous, 85% of the Moon is Illuminated
Nov 13
Waxing Gibbous
Nov 17
Full
Nov 25
Last Quarter
Dec 2
New
Dec 9
First Quarter

Hourly Weather History & Observations

Time (CST) Temp. Windchill Dew Point Humidity Pressure Visibility Wind Dir Wind Speed Gust Speed Precip Events Conditions
12:15 AM 30.2 °F 17.8 °F 24.8 °F 80% 29.93 in 10.0 mi SW 19.6 mph 25.3 mph N/A   Clear
12:35 AM 30.2 °F 15.4 °F 24.8 °F 80% 29.91 in 10.0 mi SW 28.8 mph 34.5 mph N/A   Clear
12:55 AM 30.2 °F 15.7 °F 24.8 °F 80% 29.89 in 10.0 mi SW 27.6 mph 36.8 mph N/A   Clear
1:15 AM 32.0 °F 17.9 °F 26.6 °F 80% 29.88 in 10.0 mi WSW 28.8 mph 35.7 mph N/A   Clear
1:35 AM 32.0 °F 17.6 °F 26.6 °F 80% 29.88 in 10.0 mi WSW 29.9 mph 35.7 mph N/A   Clear
1:55 AM 32.0 °F 18.1 °F 26.6 °F 80% 29.86 in 10.0 mi SW 27.6 mph 36.8 mph N/A   Clear
2:15 AM 32.0 °F 18.1 °F 26.6 °F 80% 29.85 in 10.0 mi WSW 27.6 mph 33.4 mph N/A   Clear
2:35 AM 32.0 °F 18.9 °F 26.6 °F 80% 29.84 in 10.0 mi SW 24.2 mph 31.1 mph N/A   Clear
2:55 AM 32.0 °F 18.9 °F 26.6 °F 80% 29.84 in 10.0 mi WSW 24.2 mph 29.9 mph N/A   Clear
3:15 AM 32.0 °F 18.9 °F 26.6 °F 80% 29.82 in 10.0 mi WSW 24.2 mph 32.2 mph N/A   Clear
3:35 AM 33.8 °F 21.9 °F 28.4 °F 81% 29.82 in 10.0 mi WSW 21.9 mph 27.6 mph N/A   Clear
3:55 AM 33.8 °F 22.5 °F 28.4 °F 81% 29.82 in 10.0 mi WSW 19.6 mph 26.5 mph N/A   Clear
4:15 AM 33.8 °F 22.2 °F 28.4 °F 81% 29.81 in 10.0 mi WSW 20.7 mph - N/A   Clear
4:35 AM 33.8 °F 22.5 °F 28.4 °F 81% 29.80 in 10.0 mi WSW 19.6 mph - N/A   Clear
4:55 AM 33.8 °F 22.5 °F 28.4 °F 81% 29.78 in 10.0 mi SW 19.6 mph 25.3 mph N/A   Clear
5:15 AM 35.6 °F 24.8 °F 30.2 °F 81% 29.77 in 10.0 mi WSW 19.6 mph - N/A   Clear
5:35 AM 33.8 °F 21.9 °F 30.2 °F 87% 29.77 in 10.0 mi WSW 21.9 mph - N/A   Clear
5:55 AM 35.6 °F 24.0 °F 30.2 °F 81% 29.75 in 10.0 mi WSW 23.0 mph - N/A   Clear
6:15 AM 35.6 °F 23.4 °F 30.2 °F 81% 29.75 in 10.0 mi WSW 25.3 mph 31.1 mph N/A   Clear
6:35 AM 35.6 °F 25.2 °F 30.2 °F 81% 29.75 in 10.0 mi WSW 18.4 mph 26.5 mph N/A   Clear
6:55 AM 35.6 °F 31.7 °F 32.0 °F 87% 29.78 in 10.0 mi West 4.6 mph 21.9 mph N/A   Clear
7:15 AM 37.4 °F 31.4 °F 32.0 °F 81% 29.77 in 10.0 mi West 8.1 mph - N/A   Clear
7:35 AM 41.0 °F 33.5 °F 32.0 °F 70% 29.77 in 10.0 mi WSW 13.8 mph 20.7 mph N/A   Clear
7:55 AM 42.8 °F 34.8 °F 32.0 °F 66% 29.77 in 10.0 mi West 17.3 mph 25.3 mph N/A   Clear
8:15 AM 42.8 °F 34.8 °F 32.0 °F 66% 29.77 in 10.0 mi WNW 17.3 mph 23.0 mph N/A   Clear
8:35 AM 44.6 °F 37.8 °F 32.0 °F 61% 29.77 in 10.0 mi WNW 15.0 mph - N/A   Clear
8:55 AM 44.6 °F 37.4 °F 30.2 °F 57% 29.78 in 10.0 mi WNW 16.1 mph - N/A   Clear
9:15 AM 44.6 °F 37.2 °F 28.4 °F 53% 29.78 in 10.0 mi NW 17.3 mph 24.2 mph N/A   Clear
9:35 AM 46.4 °F 38.7 °F 24.8 °F 43% 29.78 in 10.0 mi NW 20.7 mph 24.2 mph N/A   Clear
9:55 AM 46.4 °F 39.2 °F 24.8 °F 43% 29.78 in 10.0 mi NW 18.4 mph - N/A   Clear
10:15 AM 46.4 °F 38.7 °F 24.8 °F 43% 29.78 in 10.0 mi NW 20.7 mph 26.5 mph N/A   Clear
10:35 AM 46.4 °F 39.0 °F 24.8 °F 43% 29.79 in 10.0 mi NW 19.6 mph 25.3 mph N/A   Clear
10:55 AM 48.2 °F - 23.0 °F 37% 29.79 in 10.0 mi NW 21.9 mph 29.9 mph N/A   Clear
11:15 AM 48.2 °F - 23.0 °F 37% 29.79 in 10.0 mi NW 17.3 mph 26.5 mph N/A   Clear
11:35 AM 50.0 °F - 24.8 °F 37% 29.80 in 10.0 mi NW 23.0 mph 31.1 mph N/A   Clear
11:55 AM 50.0 °F - 24.8 °F 37% 29.80 in 10.0 mi NW 20.7 mph 28.8 mph N/A   Clear
12:15 PM 50.0 °F - 26.6 °F 40% 29.80 in 10.0 mi NW 21.9 mph 27.6 mph N/A   Clear
12:35 PM 50.0 °F - 28.4 °F 43% 29.80 in 10.0 mi NW 16.1 mph 28.8 mph N/A   Clear
12:55 PM 48.2 °F - 30.2 °F 50% 29.81 in 10.0 mi WNW 13.8 mph 20.7 mph N/A   Clear
1:15 PM 50.0 °F - 30.2 °F 47% 29.81 in 10.0 mi NW 13.8 mph - N/A   Clear
1:55 PM 51.8 °F - 30.2 °F 44% 29.80 in 10.0 mi WNW 13.8 mph 19.6 mph N/A   Clear
2:15 PM 51.8 °F - 30.2 °F 44% 29.80 in 10.0 mi WNW 13.8 mph - N/A   Clear
2:35 PM 51.8 °F - 30.2 °F 44% 29.80 in 10.0 mi WNW 12.7 mph - N/A   Clear
2:55 PM 51.8 °F - 30.2 °F 44% 29.80 in 10.0 mi WNW 12.7 mph - N/A   Clear
3:15 PM 50.0 °F - 30.2 °F 47% 29.80 in 10.0 mi WNW 11.5 mph - N/A   Clear
3:35 PM 50.0 °F - 28.4 °F 43% 29.80 in 10.0 mi West 12.7 mph - N/A   Clear
3:55 PM 50.0 °F - 30.2 °F 47% 29.80 in 10.0 mi West 11.5 mph 17.3 mph N/A   Clear
4:15 PM 50.0 °F - 28.4 °F 43% 29.81 in 10.0 mi West 12.7 mph - N/A   Clear
4:35 PM 48.2 °F - 28.4 °F 46% 29.81 in 10.0 mi West 9.2 mph - N/A   Clear
4:55 PM 44.6 °F 41.4 °F 30.2 °F 57% 29.81 in 10.0 mi WSW 5.8 mph - N/A   Clear
5:15 PM 39.2 °F 33.0 °F 28.4 °F 65% 29.81 in 10.0 mi WSW 9.2 mph - N/A   Clear
5:35 PM 37.4 °F 31.4 °F 28.4 °F 70% 29.81 in 10.0 mi WSW 8.1 mph - N/A   Clear
5:55 PM 37.4 °F 32.1 °F 28.4 °F 70% 29.81 in 10.0 mi WSW 6.9 mph - N/A   Clear
6:15 PM 37.4 °F 30.8 °F 28.4 °F 70% 29.82 in 10.0 mi West 9.2 mph - N/A   Clear
6:35 PM 37.4 °F 30.8 °F 30.2 °F 75% 29.82 in 10.0 mi WSW 9.2 mph - N/A   Clear
6:55 PM 37.4 °F 30.3 °F 30.2 °F 75% 29.82 in 10.0 mi West 10.4 mph - N/A   Clear
7:15 PM 41.0 °F 34.7 °F 32.0 °F 70% 29.81 in 10.0 mi West 10.4 mph - N/A   Clear
7:35 PM 41.0 °F 34.7 °F 32.0 °F 70% 29.81 in 10.0 mi West 10.4 mph - N/A   Clear
7:55 PM 39.2 °F 34.2 °F 32.0 °F 75% 29.81 in 10.0 mi West 6.9 mph - N/A   Clear
8:15 PM 41.0 °F 35.2 °F 32.0 °F 70% 29.81 in 10.0 mi West 9.2 mph - N/A   Scattered Clouds
8:35 PM 41.0 °F 34.7 °F 32.0 °F 70% 29.81 in 10.0 mi West 10.4 mph - N/A   Overcast
8:55 PM 42.8 °F 36.2 °F 32.0 °F 66% 29.80 in 10.0 mi NW 12.7 mph - N/A   Overcast
9:15 PM 44.6 °F 38.4 °F 32.0 °F 61% 29.80 in 10.0 mi NNW 12.7 mph - N/A   Overcast
9:35 PM 44.6 °F 39.2 °F 32.0 °F 61% 29.81 in 10.0 mi NW 10.4 mph - N/A   Overcast
9:55 PM 42.8 °F 38.6 °F 32.0 °F 66% 29.81 in 10.0 mi WNW 6.9 mph - N/A   Overcast
10:15 PM 42.8 °F 40.1 °F 32.0 °F 66% 29.81 in 10.0 mi WSW 4.6 mph - N/A   Overcast
10:35 PM 39.2 °F 34.2 °F 32.0 °F 75% 29.80 in 10.0 mi SW 6.9 mph - N/A   Overcast
10:55 PM 39.2 °F 35.0 °F 32.0 °F 75% 29.80 in 10.0 mi SW 5.8 mph - N/A   Overcast
11:15 PM 37.4 °F - 32.0 °F 81% 29.80 in 10.0 mi Calm Calm - N/A   Overcast
11:35 PM 41.0 °F 36.4 °F 32.0 °F 70% 29.80 in 10.0 mi NW 6.9 mph - N/A Rain Light Rain
11:55 PM 41.0 °F 36.4 °F 33.8 °F 76% 29.80 in 10.0 mi NNW 6.9 mph - N/A Rain Light Rain